首页
METAR-TAF:

METAR-TAF

机场 :

塔什干国际机场

塔什干, 乌兹别克斯坦

纬度: 41-16N, 经度: 069-16E, 海拔: 489米

当前天气观测

该预报发布于21分钟前的13:30 UTC
风速4节,风向北转西北
温度 9°C
湿度 31%
气压 1021 hPa
能见度10公里或以上
1500米以下无云,无积雨云

METAR: UTTT 171330Z 33004KT CAVOK 09/M07 Q1021 R08R/CLRD70 NOSIG

时间: 18:51 (13:51 UTC)

预报

该预报发布于2小时和51分钟前的11:00 UTC
预报有效从17日的 12点(UTC)到 18日的 12点(UTC)
风速8节,风向西北
能見度: 7000
短暂存在
从 17日的 14点(UTC)到 17日的 24点(UTC)
风速10节,风向东转东北
能見度: 3000
少量云层高于5000英尺, 积雨云.
多云层高于10000英尺
轻雾, 烟

TAF: UTTT 171100Z 1712/1812 32008KT 7000 NSC TEMPO 1714/1724 06010KT 3000 BR FU FEW050CB BKN100

超过4000个机场的气象观测和天气预报(METAR&TAF报告)。

可查询的气象台以黄色和红色小点在地图上表示。

将鼠标移到小点上方,可查看气象台名称。

然后点击查看天气观测和预报。

如需切换地图:点击带黑十字的绿色按钮放大地图;点击带横线的绿色按钮缩小地图;或者点击绿色箭头查看邻近地区的地图。


METAR-TAF: